sensor_id;sensor_type;location;lat;lon;timestamp;pressure;altitude;pressure_sealevel;temperature;humidity
54389;BME280;40975;50.390;8.640;2024-01-15T00:00:12;97787.66;;;-1.83;100.00
54389;BME280;40975;50.390;8.640;2024-01-15T00:02:38;97783.81;;;-1.91;100.00
54389;BME280;40975;50.390;8.640;2024-01-15T00:05:04;97787.97;;;-1.88;100.00
54389;BME280;40975;50.390;8.640;2024-01-15T00:07:29;97790.59;;;-1.88;100.00
54389;BME280;40975;50.390;8.640;2024-01-15T00:09:54;97779.88;;;-1.83;100.00
54389;BME280;40975;50.390;8.640;2024-01-15T00:12:20;97770.41;;;-1.84;100.00
54389;BME280;40975;50.390;8.640;2024-01-15T00:14:45;97763.34;;;-1.82;100.00
54389;BME280;40975;50.390;8.640;2024-01-15T00:17:10;97763.34;;;-1.82;100.00
54389;BME280;40975;50.390;8.640;2024-01-15T00:19:36;97764.25;;;-1.83;100.00
54389;BME280;40975;50.390;8.640;2024-01-15T00:22:01;97768.53;;;-1.82;100.00
54389;BME280;40975;50.390;8.640;2024-01-15T00:24:26;97763.25;;;-1.81;100.00
54389;BME280;40975;50.390;8.640;2024-01-15T00:26:52;97759.91;;;-1.83;100.00
54389;BME280;40975;50.390;8.640;2024-01-15T00:29:18;97752.00;;;-1.81;100.00
54389;BME280;40975;50.390;8.640;2024-01-15T00:31:44;97752.84;;;-1.81;100.00
54389;BME280;40975;50.390;8.640;2024-01-15T00:34:09;97754.72;;;-1.83;100.00
54389;BME280;40975;50.390;8.640;2024-01-15T00:36:35;97757.94;;;-1.66;100.00
54389;BME280;40975;50.390;8.640;2024-01-15T00:39:00;97753.16;;;-1.60;100.00
54389;BME280;40975;50.390;8.640;2024-01-15T00:41:26;97761.47;;;-1.67;100.00
54389;BME280;40975;50.390;8.640;2024-01-15T00:43:52;97760.13;;;-1.73;100.00
54389;BME280;40975;50.390;8.640;2024-01-15T00:46:18;97763.97;;;-1.79;100.00
54389;BME280;40975;50.390;8.640;2024-01-15T00:48:43;97757.50;;;-1.73;100.00
54389;BME280;40975;50.390;8.640;2024-01-15T00:51:08;97746.28;;;-1.74;100.00
54389;BME280;40975;50.390;8.640;2024-01-15T00:53:34;97748.16;;;-1.76;100.00
54389;BME280;40975;50.390;8.640;2024-01-15T00:55:59;97748.34;;;-1.79;100.00
54389;BME280;40975;50.390;8.640;2024-01-15T00:58:25;97737.00;;;-1.78;100.00
54389;BME280;40975;50.390;8.640;2024-01-15T01:00:51;97727.66;;;-1.80;100.00
54389;BME280;40975;50.390;8.640;2024-01-15T01:03:16;97728.69;;;-1.83;100.00
54389;BME280;40975;50.390;8.640;2024-01-15T01:05:41;97727.34;;;-1.89;100.00
54389;BME280;40975;50.390;8.640;2024-01-15T01:08:07;97719.22;;;-1.84;100.00
54389;BME280;40975;50.390;8.640;2024-01-15T01:10:32;97711.53;;;-1.85;100.00
54389;BME280;40975;50.390;8.640;2024-01-15T01:12:57;97718.00;;;-1.78;100.00
54389;BME280;40975;50.390;8.640;2024-01-15T01:15:23;97716.94;;;-1.76;100.00
54389;BME280;40975;50.390;8.640;2024-01-15T01:17:49;97710.81;;;-1.75;100.00
54389;BME280;40975;50.390;8.640;2024-01-15T01:20:15;97710.06;;;-1.77;100.00
54389;BME280;40975;50.390;8.640;2024-01-15T01:22:40;97707.69;;;-1.80;100.00
54389;BME280;40975;50.390;8.640;2024-01-15T01:25:06;97704.88;;;-1.77;100.00
54389;BME280;40975;50.390;8.640;2024-01-15T01:27:31;97711.53;;;-1.73;100.00
54389;BME280;40975;50.390;8.640;2024-01-15T01:29:57;97700.91;;;-1.69;100.00
54389;BME280;40975;50.390;8.640;2024-01-15T01:32:22;97697.16;;;-1.65;100.00
54389;BME280;40975;50.390;8.640;2024-01-15T01:34:47;97696.25;;;-1.64;100.00
54389;BME280;40975;50.390;8.640;2024-01-15T01:37:13;97701.44;;;-1.64;100.00
54389;BME280;40975;50.390;8.640;2024-01-15T01:39:39;97700.81;;;-1.68;100.00
54389;BME280;40975;50.390;8.640;2024-01-15T01:42:05;97696.44;;;-1.67;100.00
54389;BME280;40975;50.390;8.640;2024-01-15T01:44:30;97693.84;;;-1.67;100.00
54389;BME280;40975;50.390;8.640;2024-01-15T01:46:56;97699.56;;;-1.62;100.00
54389;BME280;40975;50.390;8.640;2024-01-15T01:49:23;97697.78;;;-1.62;100.00
54389;BME280;40975;50.390;8.640;2024-01-15T01:51:49;97699.88;;;-1.67;100.00
54389;BME280;40975;50.390;8.640;2024-01-15T01:54:15;97695.50;;;-1.66;100.00
54389;BME280;40975;50.390;8.640;2024-01-15T01:56:41;97698.03;;;-1.65;100.00
54389;BME280;40975;50.390;8.640;2024-01-15T01:59:09;97696.25;;;-1.64;100.00
54389;BME280;40975;50.390;8.640;2024-01-15T02:01:36;97691.16;;;-1.66;100.00
54389;BME280;40975;50.390;8.640;2024-01-15T02:04:01;97698.09;;;-1.66;100.00
54389;BME280;40975;50.390;8.640;2024-01-15T02:06:27;97692.81;;;-1.65;100.00
54389;BME280;40975;50.390;8.640;2024-01-15T02:08:53;97688.88;;;-1.70;100.00
54389;BME280;40975;50.390;8.640;2024-01-15T02:11:18;97688.94;;;-1.72;100.00
54389;BME280;40975;50.390;8.640;2024-01-15T02:13:43;97699.34;;;-1.72;100.00
54389;BME280;40975;50.390;8.640;2024-01-15T02:16:09;97696.31;;;-1.79;100.00
54389;BME280;40975;50.390;8.640;2024-01-15T02:18:41;97698.22;;;-1.81;100.00
54389;BME280;40975;50.390;8.640;2024-01-15T02:21:07;97693.09;;;-1.82;100.00
54389;BME280;40975;50.390;8.640;2024-01-15T02:23:32;97696.56;;;-1.82;100.00
54389;BME280;40975;50.390;8.640;2024-01-15T02:25:58;97696.88;;;-1.74;100.00
54389;BME280;40975;50.390;8.640;2024-01-15T02:28:23;97692.72;;;-1.76;100.00
54389;BME280;40975;50.390;8.640;2024-01-15T02:30:51;97696.56;;;-1.82;100.00
54389;BME280;40975;50.390;8.640;2024-01-15T02:33:16;97690.75;;;-1.85;100.00
54389;BME280;40975;50.390;8.640;2024-01-15T02:35:41;97691.03;;;-1.90;100.00
54389;BME280;40975;50.390;8.640;2024-01-15T02:38:07;97692.59;;;-1.88;100.00
54389;BME280;40975;50.390;8.640;2024-01-15T02:40:33;97692.69;;;-1.89;100.00
54389;BME280;40975;50.390;8.640;2024-01-15T02:42:58;97690.09;;;-1.89;100.00
54389;BME280;40975;50.390;8.640;2024-01-15T02:45:24;97690.00;;;-1.88;100.00
54389;BME280;40975;50.390;8.640;2024-01-15T02:47:49;97690.19;;;-1.91;100.00
54389;BME280;40975;50.390;8.640;2024-01-15T02:50:15;97708.50;;;-1.92;100.00
54389;BME280;40975;50.390;8.640;2024-01-15T02:52:41;97694.88;;;-1.96;100.00
54389;BME280;40975;50.390;8.640;2024-01-15T02:55:07;97699.66;;;-1.90;100.00
54389;BME280;40975;50.390;8.640;2024-01-15T02:57:32;97702.16;;;-1.88;100.00
54389;BME280;40975;50.390;8.640;2024-01-15T02:59:58;97691.56;;;-1.85;100.00
54389;BME280;40975;50.390;8.640;2024-01-15T03:02:23;97701.03;;;-1.84;100.00
54389;BME280;40975;50.390;8.640;2024-01-15T03:04:48;97703.00;;;-1.88;100.00
54389;BME280;40975;50.390;8.640;2024-01-15T03:07:14;97707.03;;;-1.83;100.00
54389;BME280;40975;50.390;8.640;2024-01-15T03:09:39;97712.06;;;-1.80;100.00
54389;BME280;40975;50.390;8.640;2024-01-15T03:12:05;97700.72;;;-1.79;100.00
54389;BME280;40975;50.390;8.640;2024-01-15T03:14:30;97708.50;;;-1.79;100.00
54389;BME280;40975;50.390;8.640;2024-01-15T03:16:56;97715.06;;;-1.74;100.00
54389;BME280;40975;50.390;8.640;2024-01-15T03:19:21;97716.81;;;-1.74;100.00
54389;BME280;40975;50.390;8.640;2024-01-15T03:21:46;97713.72;;;-1.79;100.00
54389;BME280;40975;50.390;8.640;2024-01-15T03:24:12;97714.84;;;-1.83;100.00
54389;BME280;40975;50.390;8.640;2024-01-15T03:26:37;97716.63;;;-1.71;100.00
54389;BME280;40975;50.390;8.640;2024-01-15T03:29:02;97714.34;;;-1.76;100.00
54389;BME280;40975;50.390;8.640;2024-01-15T03:31:28;97719.66;;;-1.77;100.00
54389;BME280;40975;50.390;8.640;2024-01-15T03:33:53;97703.50;;;-1.82;100.00
54389;BME280;40975;50.390;8.640;2024-01-15T03:36:18;97701.84;;;-1.83;100.00
54389;BME280;40975;50.390;8.640;2024-01-15T03:38:44;97694.97;;;-1.84;100.00
54389;BME280;40975;50.390;8.640;2024-01-15T03:41:09;97705.50;;;-1.86;100.00
54389;BME280;40975;50.390;8.640;2024-01-15T03:43:34;97694.28;;;-1.86;100.00
54389;BME280;40975;50.390;8.640;2024-01-15T03:46:00;97698.63;;;-1.87;100.00
54389;BME280;40975;50.390;8.640;2024-01-15T03:48:25;97702.16;;;-1.88;100.00
54389;BME280;40975;50.390;8.640;2024-01-15T03:50:50;97695.41;;;-1.91;100.00
54389;BME280;40975;50.390;8.640;2024-01-15T03:53:16;97695.72;;;-1.82;100.00
54389;BME280;40975;50.390;8.640;2024-01-15T03:55:42;97700.41;;;-1.88;100.00
54389;BME280;40975;50.390;8.640;2024-01-15T03:58:07;97700.78;;;-1.94;100.00
54389;BME280;40975;50.390;8.640;2024-01-15T04:00:33;97702.47;;;-2.06;100.00
54389;BME280;40975;50.390;8.640;2024-01-15T04:02:58;97690.69;;;-1.98;100.00
54389;BME280;40975;50.390;8.640;2024-01-15T04:05:23;97681.78;;;-2.07;100.00
54389;BME280;40975;50.390;8.640;2024-01-15T04:07:49;97681.34;;;-2.01;100.00
54389;BME280;40975;50.390;8.640;2024-01-15T04:10:14;97686.44;;;-1.99;100.00
54389;BME280;40975;50.390;8.640;2024-01-15T04:12:39;97684.38;;;-2.07;100.00
54389;BME280;40975;50.390;8.640;2024-01-15T04:15:05;97698.72;;;-2.01;100.00
54389;BME280;40975;50.390;8.640;2024-01-15T04:17:30;97689.56;;;-2.07;100.00
54389;BME280;40975;50.390;8.640;2024-01-15T04:19:56;97686.84;;;-2.06;100.00
54389;BME280;40975;50.390;8.640;2024-01-15T04:22:21;97682.38;;;-2.04;100.00
54389;BME280;40975;50.390;8.640;2024-01-15T04:24:46;97678.56;;;-1.98;100.00
54389;BME280;40975;50.390;8.640;2024-01-15T04:27:12;97674.28;;;-1.99;100.00
54389;BME280;40975;50.390;8.640;2024-01-15T04:29:38;97675.09;;;-1.98;100.00
54389;BME280;40975;50.390;8.640;2024-01-15T04:32:04;97678.56;;;-1.98;100.00
54389;BME280;40975;50.390;8.640;2024-01-15T04:34:29;97682.50;;;-1.92;100.00
54389;BME280;40975;50.390;8.640;2024-01-15T04:36:55;97681.56;;;-1.91;100.00
54389;BME280;40975;50.390;8.640;2024-01-15T04:39:20;97683.75;;;-1.85;100.00
54389;BME280;40975;50.390;8.640;2024-01-15T04:41:45;97669.19;;;-1.88;100.00
54389;BME280;40975;50.390;8.640;2024-01-15T04:44:10;97672.53;;;-1.85;100.00
54389;BME280;40975;50.390;8.640;2024-01-15T04:46:36;97667.41;;;-1.87;100.00
54389;BME280;40975;50.390;8.640;2024-01-15T04:49:01;97671.19;;;-1.91;100.00
54389;BME280;40975;50.390;8.640;2024-01-15T04:51:27;97662.31;;;-1.89;100.00
54389;BME280;40975;50.390;8.640;2024-01-15T04:53:52;97667.09;;;-1.95;100.00
54389;BME280;40975;50.390;8.640;2024-01-15T04:56:17;97668.75;;;-1.81;100.00
54389;BME280;40975;50.390;8.640;2024-01-15T04:58:43;97673.84;;;-1.93;100.00
54389;BME280;40975;50.390;8.640;2024-01-15T05:01:08;97659.09;;;-1.92;100.00
54389;BME280;40975;50.390;8.640;2024-01-15T05:03:35;97653.59;;;-1.88;100.00
54389;BME280;40975;50.390;8.640;2024-01-15T05:06:00;97659.59;;;-1.87;100.00
54389;BME280;40975;50.390;8.640;2024-01-15T05:08:26;97656.50;;;-1.92;100.00
54389;BME280;40975;50.390;8.640;2024-01-15T05:10:51;97654.31;;;-1.85;100.00
54389;BME280;40975;50.390;8.640;2024-01-15T05:13:16;97653.59;;;-1.88;100.00
54389;BME280;40975;50.390;8.640;2024-01-15T05:15:41;97655.75;;;-1.81;100.00
54389;BME280;40975;50.390;8.640;2024-01-15T05:18:07;97649.94;;;-1.85;100.00
54389;BME280;40975;50.390;8.640;2024-01-15T05:20:32;97656.81;;;-1.84;100.00
54389;BME280;40975;50.390;8.640;2024-01-15T05:22:57;97659.59;;;-1.87;100.00
54389;BME280;40975;50.390;8.640;2024-01-15T05:25:23;97652.66;;;-1.86;100.00
54389;BME280;40975;50.390;8.640;2024-01-15T05:27:48;97656.38;;;-1.91;100.00
54389;BME280;40975;50.390;8.640;2024-01-15T05:30:14;97657.75;;;-1.85;100.00
54389;BME280;40975;50.390;8.640;2024-01-15T05:32:39;97650.13;;;-1.88;100.00
54389;BME280;40975;50.390;8.640;2024-01-15T05:35:04;97659.28;;;-1.82;100.00
54389;BME280;40975;50.390;8.640;2024-01-15T05:37:30;97658.78;;;-1.88;100.00
54389;BME280;40975;50.390;8.640;2024-01-15T05:39:55;97663.69;;;-1.83;100.00
54389;BME280;40975;50.390;8.640;2024-01-15T05:42:21;97663.16;;;-1.88;100.00
54389;BME280;40975;50.390;8.640;2024-01-15T05:44:46;97662.31;;;-1.89;100.00
54389;BME280;40975;50.390;8.640;2024-01-15T05:47:11;97665.97;;;-1.78;100.00
54389;BME280;40975;50.390;8.640;2024-01-15T05:49:37;97663.25;;;-1.77;100.00
54389;BME280;40975;50.390;8.640;2024-01-15T05:52:02;97668.25;;;-1.74;100.00
54389;BME280;40975;50.390;8.640;2024-01-15T05:54:28;97669.50;;;-1.79;100.00
54389;BME280;40975;50.390;8.640;2024-01-15T05:56:54;97664.09;;;-1.76;100.00
54389;BME280;40975;50.390;8.640;2024-01-15T05:59:19;97671.59;;;-1.72;100.00
54389;BME280;40975;50.390;8.640;2024-01-15T06:01:45;97670.00;;;-1.74;100.00
54389;BME280;40975;50.390;8.640;2024-01-15T06:04:10;97660.75;;;-1.78;100.00
54389;BME280;40975;50.390;8.640;2024-01-15T06:06:35;97661.06;;;-1.83;100.00
54389;BME280;40975;50.390;8.640;2024-01-15T06:09:01;97669.06;;;-1.73;100.00
54389;BME280;40975;50.390;8.640;2024-01-15T06:11:31;97661.50;;;-1.76;100.00
54389;BME280;40975;50.390;8.640;2024-01-15T06:13:56;97663.16;;;-1.88;100.00
54389;BME280;40975;50.390;8.640;2024-01-15T06:16:23;97665.22;;;-1.80;100.00
54389;BME280;40975;50.390;8.640;2024-01-15T06:18:49;97668.75;;;-1.81;100.00
54389;BME280;40975;50.390;8.640;2024-01-15T06:21:15;97671.97;;;-1.78;100.00
54389;BME280;40975;50.390;8.640;2024-01-15T06:23:40;97663.97;;;-1.75;100.00
54389;BME280;40975;50.390;8.640;2024-01-15T06:26:05;97674.47;;;-1.89;100.00
54389;BME280;40975;50.390;8.640;2024-01-15T06:28:31;97666.59;;;-1.88;100.00
54389;BME280;40975;50.390;8.640;2024-01-15T06:30:57;97670.56;;;-1.95;100.00
54389;BME280;40975;50.390;8.640;2024-01-15T06:33:23;97673.16;;;-1.95;100.00
54389;BME280;40975;50.390;8.640;2024-01-15T06:35:48;97675.94;;;-1.98;100.00
54389;BME280;40975;50.390;8.640;2024-01-15T06:38:14;97668.66;;;-1.93;100.00
54389;BME280;40975;50.390;8.640;2024-01-15T06:40:40;97656.69;;;-1.95;100.00
54389;BME280;40975;50.390;8.640;2024-01-15T06:43:13;97659.72;;;-2.01;100.00
54389;BME280;40975;50.390;8.640;2024-01-15T06:45:38;97654.72;;;-2.05;100.00
54389;BME280;40975;50.390;8.640;2024-01-15T06:48:04;97650.56;;;-2.07;100.00
54389;BME280;40975;50.390;8.640;2024-01-15T06:50:29;97655.16;;;-2.11;100.00
54389;BME280;40975;50.390;8.640;2024-01-15T06:52:55;97648.38;;;-2.13;100.00
54389;BME280;40975;50.390;8.640;2024-01-15T06:55:20;97645.56;;;-2.23;100.00
54389;BME280;40975;50.390;8.640;2024-01-15T06:57:46;97649.50;;;-2.30;100.00
54389;BME280;40975;50.390;8.640;2024-01-15T07:00:11;97654.59;;;-2.29;100.00
54389;BME280;40975;50.390;8.640;2024-01-15T07:02:37;97653.56;;;-2.26;100.00
54389;BME280;40975;50.390;8.640;2024-01-15T07:05:02;97653.97;;;-2.20;100.00
54389;BME280;40975;50.390;8.640;2024-01-15T07:07:30;97659.09;;;-2.05;100.00
54389;BME280;40975;50.390;8.640;2024-01-15T07:09:55;97659.72;;;-2.01;100.00
54389;BME280;40975;50.390;8.640;2024-01-15T07:12:20;97653.38;;;-1.97;100.00
54389;BME280;40975;50.390;8.640;2024-01-15T07:14:46;97648.78;;;-1.94;100.00
54389;BME280;40975;50.390;8.640;2024-01-15T07:17:11;97648.91;;;-1.95;100.00
54389;BME280;40975;50.390;8.640;2024-01-15T07:19:36;97642.66;;;-1.93;100.00
54389;BME280;40975;50.390;8.640;2024-01-15T07:22:02;97646.59;;;-1.87;100.00
54389;BME280;40975;50.390;8.640;2024-01-15T07:24:27;97652.03;;;-1.90;100.00
54389;BME280;40975;50.390;8.640;2024-01-15T07:26:53;97654.63;;;-1.90;100.00
54389;BME280;40975;50.390;8.640;2024-01-15T07:29:18;97650.88;;;-1.86;100.00
54389;BME280;40975;50.390;8.640;2024-01-15T07:31:50;97651.41;;;-1.81;100.00
54389;BME280;40975;50.390;8.640;2024-01-15T07:34:16;97650.47;;;-1.80;100.00
54389;BME280;40975;50.390;8.640;2024-01-15T07:36:42;97643.50;;;-1.79;100.00
54389;BME280;40975;50.390;8.640;2024-01-15T07:39:07;97647.44;;;-1.74;100.00
54389;BME280;40975;50.390;8.640;2024-01-15T07:41:32;97640.69;;;-1.76;100.00
54389;BME280;40975;50.390;8.640;2024-01-15T07:43:58;97646.41;;;-1.71;100.00
54389;BME280;40975;50.390;8.640;2024-01-15T07:46:23;97646.06;;;-1.66;100.00
54389;BME280;40975;50.390;8.640;2024-01-15T07:48:50;97646.06;;;-1.66;100.00
54389;BME280;40975;50.390;8.640;2024-01-15T07:51:21;97646.69;;;-1.63;100.00
54389;BME280;40975;50.390;8.640;2024-01-15T07:53:46;97653.34;;;-1.59;100.00
54389;BME280;40975;50.390;8.640;2024-01-15T07:56:12;97642.41;;;-1.64;100.00
54389;BME280;40975;50.390;8.640;2024-01-15T07:58:37;97640.47;;;-1.60;100.00
54389;BME280;40975;50.390;8.640;2024-01-15T08:01:03;97635.88;;;-1.57;100.00
54389;BME280;40975;50.390;8.640;2024-01-15T08:03:28;97638.69;;;-1.60;100.00
54389;BME280;40975;50.390;8.640;2024-01-15T08:05:53;97637.63;;;-1.57;100.00
54389;BME280;40975;50.390;8.640;2024-01-15T08:08:19;97641.56;;;-1.51;100.00
54389;BME280;40975;50.390;8.640;2024-01-15T08:10:46;97644.78;;;-1.48;100.00
54389;BME280;40975;50.390;8.640;2024-01-15T08:13:11;97649.78;;;-1.45;100.00
54389;BME280;40975;50.390;8.640;2024-01-15T08:15:37;97647.31;;;-1.46;100.00
54389;BME280;40975;50.390;8.640;2024-01-15T08:18:02;97637.72;;;-1.46;100.00
54389;BME280;40975;50.390;8.640;2024-01-15T08:20:28;97633.84;;;-1.40;100.00
54389;BME280;40975;50.390;8.640;2024-01-15T08:22:53;97638.00;;;-1.37;100.00
54389;BME280;40975;50.390;8.640;2024-01-15T08:25:18;97640.28;;;-1.33;100.00
54389;BME280;40975;50.390;8.640;2024-01-15T08:27:44;97637.34;;;-1.28;100.00
54389;BME280;40975;50.390;8.640;2024-01-15T08:30:10;97628.19;;;-1.21;100.00
54389;BME280;40975;50.390;8.640;2024-01-15T08:32:35;97623.34;;;-1.14;100.00
54389;BME280;40975;50.390;8.640;2024-01-15T08:35:06;97632.00;;;-1.14;100.00
54389;BME280;40975;50.390;8.640;2024-01-15T08:37:31;97630.47;;;-1.16;100.00
54389;BME280;40975;50.390;8.640;2024-01-15T08:39:56;97625.47;;;-1.19;100.00
54389;BME280;40975;50.390;8.640;2024-01-15T08:42:22;97613.19;;;-1.17;100.00
54389;BME280;40975;50.390;8.640;2024-01-15T08:44:47;97615.06;;;-1.19;100.00
54389;BME280;40975;50.390;8.640;2024-01-15T08:47:12;97618.94;;;-1.25;100.00
54389;BME280;40975;50.390;8.640;2024-01-15T08:49:38;97620.88;;;-1.16;100.00
54389;BME280;40975;50.390;8.640;2024-01-15T08:52:04;97628.13;;;-1.08;100.00
54389;BME280;40975;50.390;8.640;2024-01-15T08:54:30;97633.13;;;-1.05;100.00
54389;BME280;40975;50.390;8.640;2024-01-15T08:56:55;97628.22;;;-0.97;100.00
54389;BME280;40975;50.390;8.640;2024-01-15T08:59:20;97632.97;;;-0.90;100.00
54389;BME280;40975;50.390;8.640;2024-01-15T09:01:50;97629.16;;;-0.98;100.00
54389;BME280;40975;50.390;8.640;2024-01-15T09:04:15;97623.94;;;-0.98;100.00
54389;BME280;40975;50.390;8.640;2024-01-15T09:06:44;97629.28;;;-0.88;100.00
54389;BME280;40975;50.390;8.640;2024-01-15T09:09:10;97623.06;;;-0.85;100.00
54389;BME280;40975;50.390;8.640;2024-01-15T09:11:36;97626.06;;;-0.67;100.00
54389;BME280;40975;50.390;8.640;2024-01-15T09:14:01;97623.47;;;-0.67;100.00
54389;BME280;40975;50.390;8.640;2024-01-15T09:16:26;97626.72;;;-0.52;100.00
54389;BME280;40975;50.390;8.640;2024-01-15T09:18:52;97627.44;;;-0.50;100.00
54389;BME280;40975;50.390;8.640;2024-01-15T09:21:17;97625.66;;;-0.50;100.00
54389;BME280;40975;50.390;8.640;2024-01-15T09:23:42;97619.63;;;-0.50;100.00
54389;BME280;40975;50.390;8.640;2024-01-15T09:26:08;97622.00;;;-0.47;100.00
54389;BME280;40975;50.390;8.640;2024-01-15T09:28:34;97604.50;;;-0.34;100.00
54389;BME280;40975;50.390;8.640;2024-01-15T09:30:59;97607.19;;;0.23;100.00
54389;BME280;40975;50.390;8.640;2024-01-15T09:33:25;97597.69;;;0.34;100.00
54389;BME280;40975;50.390;8.640;2024-01-15T09:35:50;97602.22;;;2.56;100.00
54389;BME280;40975;50.390;8.640;2024-01-15T09:38:15;97630.72;;;5.74;84.90
54389;BME280;40975;50.390;8.640;2024-01-15T09:40:43;97632.00;;;6.67;75.41
54389;BME280;40975;50.390;8.640;2024-01-15T09:43:08;97624.41;;;6.03;71.00
54389;BME280;40975;50.390;8.640;2024-01-15T09:45:34;97633.56;;;4.90;74.35
54389;BME280;40975;50.390;8.640;2024-01-15T09:47:59;97619.47;;;3.49;79.76
54389;BME280;40975;50.390;8.640;2024-01-15T09:50:24;97619.31;;;3.40;81.66
54389;BME280;40975;50.390;8.640;2024-01-15T09:52:50;97611.66;;;2.07;87.02
54389;BME280;40975;50.390;8.640;2024-01-15T09:55:17;97616.56;;;1.36;91.21
54389;BME280;40975;50.390;8.640;2024-01-15T09:57:44;97611.59;;;1.33;92.90
54389;BME280;40975;50.390;8.640;2024-01-15T10:00:10;97591.09;;;1.17;94.45
54389;BME280;40975;50.390;8.640;2024-01-15T10:02:36;97605.28;;;1.03;95.63
54389;BME280;40975;50.390;8.640;2024-01-15T10:05:02;97618.50;;;1.55;94.63
54389;BME280;40975;50.390;8.640;2024-01-15T10:07:29;97613.44;;;2.06;92.33
54389;BME280;40975;50.390;8.640;2024-01-15T10:09:54;97610.97;;;2.05;91.55
54389;BME280;40975;50.390;8.640;2024-01-15T10:12:21;97601.66;;;1.48;92.69
54389;BME280;40975;50.390;8.640;2024-01-15T10:14:47;97603.41;;;1.27;93.70
54389;BME280;40975;50.390;8.640;2024-01-15T10:17:14;97597.13;;;1.29;94.65
54389;BME280;40975;50.390;8.640;2024-01-15T10:19:42;97587.56;;;1.39;95.40
54389;BME280;40975;50.390;8.640;2024-01-15T10:22:09;97582.63;;;1.25;95.15
54389;BME280;40975;50.390;8.640;2024-01-15T10:24:37;97583.25;;;1.17;96.04
54389;BME280;40975;50.390;8.640;2024-01-15T10:27:10;97577.56;;;1.45;95.11
54389;BME280;40975;50.390;8.640;2024-01-15T10:29:36;97580.94;;;1.57;93.83
54389;BME280;40975;50.390;8.640;2024-01-15T10:32:02;97576.88;;;1.31;93.35
54389;BME280;40975;50.390;8.640;2024-01-15T10:34:28;97569.94;;;1.42;94.05
54389;BME280;40975;50.390;8.640;2024-01-15T10:36:54;97565.25;;;1.35;93.11
54389;BME280;40975;50.390;8.640;2024-01-15T10:39:24;97568.25;;;1.73;92.83
54389;BME280;40975;50.390;8.640;2024-01-15T10:41:50;97557.41;;;1.78;91.79
54389;BME280;40975;50.390;8.640;2024-01-15T10:44:18;97546.47;;;1.73;90.84
54389;BME280;40975;50.390;8.640;2024-01-15T10:46:45;97556.06;;;1.83;90.36
54389;BME280;40975;50.390;8.640;2024-01-15T10:49:11;97546.38;;;1.74;90.07
54389;BME280;40975;50.390;8.640;2024-01-15T10:51:36;97545.69;;;1.82;90.38
54389;BME280;40975;50.390;8.640;2024-01-15T10:54:02;97535.53;;;1.89;90.34
54389;BME280;40975;50.390;8.640;2024-01-15T10:56:30;97539.97;;;1.67;89.22
54389;BME280;40975;50.390;8.640;2024-01-15T10:58:56;97523.97;;;1.39;90.04
54389;BME280;40975;50.390;8.640;2024-01-15T11:01:22;97528.84;;;1.22;91.05
54389;BME280;40975;50.390;8.640;2024-01-15T11:03:48;97522.81;;;1.53;91.70
54389;BME280;40975;50.390;8.640;2024-01-15T11:06:18;97520.34;;;2.54;89.15
54389;BME280;40975;50.390;8.640;2024-01-15T11:08:48;97532.81;;;3.88;82.43
54389;BME280;40975;50.390;8.640;2024-01-15T11:11:16;97520.00;;;3.65;82.29
54389;BME280;40975;50.390;8.640;2024-01-15T11:13:41;97510.09;;;3.59;80.09
54389;BME280;40975;50.390;8.640;2024-01-15T11:16:11;97514.56;;;3.29;81.27
54389;BME280;40975;50.390;8.640;2024-01-15T11:18:40;97523.97;;;3.02;83.00
54389;BME280;40975;50.390;8.640;2024-01-15T11:23:46;97521.19;;;2.74;84.93
54389;BME280;40975;50.390;8.640;2024-01-15T11:26:38;97522.53;;;2.49;85.68
54389;BME280;40975;50.390;8.640;2024-01-15T11:29:07;97530.00;;;2.54;85.13
54389;BME280;40975;50.390;8.640;2024-01-15T11:34:02;97537.66;;;2.45;86.92
54389;BME280;40975;50.390;8.640;2024-01-15T11:41:54;97524.50;;;2.76;86.05
54389;BME280;40975;50.390;8.640;2024-01-15T11:44:20;97520.50;;;2.72;85.82
54389;BME280;40975;50.390;8.640;2024-01-15T11:46:57;97507.34;;;2.43;88.24
54389;BME280;40975;50.390;8.640;2024-01-15T11:52:19;97513.41;;;2.33;90.22
54389;BME280;40975;50.390;8.640;2024-01-15T11:57:50;97528.72;;;1.97;94.67
54389;BME280;40975;50.390;8.640;2024-01-15T12:00:15;97528.34;;;2.12;95.39
54389;BME280;40975;50.390;8.640;2024-01-15T12:02:42;97520.69;;;2.40;94.67
54389;BME280;40975;50.390;8.640;2024-01-15T12:05:09;97528.69;;;2.28;93.79
54389;BME280;40975;50.390;8.640;2024-01-15T12:07:38;97524.13;;;2.30;94.46
54389;BME280;40975;50.390;8.640;2024-01-15T12:10:11;97523.16;;;2.22;95.55
54389;BME280;40975;50.390;8.640;2024-01-15T12:15:09;97523.41;;;1.57;96.33
54389;BME280;40975;50.390;8.640;2024-01-15T12:17:35;97520.31;;;2.04;97.62
54389;BME280;40975;50.390;8.640;2024-01-15T12:20:00;97521.69;;;1.98;97.37
54389;BME280;40975;50.390;8.640;2024-01-15T12:22:25;97529.78;;;1.43;98.94
54389;BME280;40975;50.390;8.640;2024-01-15T12:24:53;97531.78;;;1.29;100.00
54389;BME280;40975;50.390;8.640;2024-01-15T12:27:18;97537.69;;;1.10;100.00
54389;BME280;40975;50.390;8.640;2024-01-15T12:29:43;97534.16;;;1.00;100.00
54389;BME280;40975;50.390;8.640;2024-01-15T12:32:09;97529.34;;;0.84;100.00
54389;BME280;40975;50.390;8.640;2024-01-15T12:34:34;97534.91;;;0.90;100.00
54389;BME280;40975;50.390;8.640;2024-01-15T12:37:00;97530.47;;;1.02;100.00
54389;BME280;40975;50.390;8.640;2024-01-15T12:39:25;97536.19;;;0.96;100.00
54389;BME280;40975;50.390;8.640;2024-01-15T12:41:51;97526.59;;;0.85;100.00
54389;BME280;40975;50.390;8.640;2024-01-15T12:44:16;97522.50;;;1.04;100.00
54389;BME280;40975;50.390;8.640;2024-01-15T12:46:42;97523.84;;;0.98;100.00
54389;BME280;40975;50.390;8.640;2024-01-15T12:49:08;97531.53;;;1.00;100.00
54389;BME280;40975;50.390;8.640;2024-01-15T12:51:36;97524.00;;;1.18;100.00
54389;BME280;40975;50.390;8.640;2024-01-15T12:54:02;97537.00;;;1.29;100.00
54389;BME280;40975;50.390;8.640;2024-01-15T12:56:27;97533.94;;;1.24;100.00
54389;BME280;40975;50.390;8.640;2024-01-15T12:58:52;97534.25;;;1.31;100.00
54389;BME280;40975;50.390;8.640;2024-01-15T13:01:18;97540.81;;;1.04;100.00
54389;BME280;40975;50.390;8.640;2024-01-15T13:03:43;97532.69;;;1.07;100.00
54389;BME280;40975;50.390;8.640;2024-01-15T13:06:08;97537.44;;;1.34;100.00